createdAt,value
2023-03-11T00:02:25.925Z,83.76
2023-03-11T00:04:52.588Z,83.23
2023-03-11T00:07:19.460Z,84.51
2023-03-11T00:09:46.707Z,83.59
2023-03-11T00:12:13.092Z,82.83
2023-03-11T00:14:39.474Z,82.92
2023-03-11T00:17:06.125Z,84.13
2023-03-11T00:19:33.007Z,82.37
2023-03-11T00:21:59.715Z,82.23
2023-03-11T00:24:26.396Z,82.01
2023-03-11T00:26:53.118Z,81.15
2023-03-11T00:29:19.595Z,81.55
2023-03-11T00:31:46.317Z,80.96
2023-03-11T00:34:12.774Z,80.68
2023-03-11T00:36:39.287Z,82.01
2023-03-11T00:39:10.923Z,79.72
2023-03-11T00:41:37.795Z,78.93
2023-03-11T00:44:04.328Z,79.49
2023-03-11T00:46:31.476Z,79.38
2023-03-11T00:48:57.979Z,80.68
2023-03-11T00:51:24.455Z,82.08
2023-03-11T00:53:50.878Z,79.93
2023-03-11T00:56:17.571Z,82.99
2023-03-11T00:58:45.079Z,82.96
2023-03-11T01:01:16.001Z,81.12
2023-03-11T01:03:42.980Z,80.89
2023-03-11T01:06:09.785Z,81.83
2023-03-11T01:08:36.769Z,81.11
2023-03-11T01:11:05.843Z,81.31
2023-03-11T01:13:32.883Z,80.35
2023-03-11T01:16:00.088Z,80.92
2023-03-11T01:18:27.057Z,80.93
2023-03-11T01:20:53.822Z,83.18
2023-03-11T01:23:21.649Z,83.62
2023-03-11T01:25:48.029Z,83.60
2023-03-11T01:28:14.653Z,84.87
2023-03-11T01:30:42.367Z,84.57
2023-03-11T01:33:14.891Z,85.02
2023-03-11T01:35:42.240Z,84.80
2023-03-11T01:38:09.691Z,85.01
2023-03-11T01:40:41.805Z,84.08
2023-03-11T01:43:57.255Z,83.22
2023-03-11T01:46:51.916Z,82.33
2023-03-11T01:49:18.680Z,82.34
2023-03-11T01:51:49.740Z,81.88
2023-03-11T01:54:20.919Z,81.74
2023-03-11T01:56:49.384Z,81.99
2023-03-11T01:59:19.335Z,80.95
2023-03-11T02:02:17.265Z,80.55
2023-03-11T02:04:44.821Z,81.26
2023-03-11T02:07:12.067Z,81.20
2023-03-11T02:09:38.450Z,78.68
2023-03-11T02:12:07.137Z,80.18
2023-03-11T02:14:35.797Z,80.09
2023-03-11T02:17:02.428Z,80.65
2023-03-11T02:20:02.207Z,79.07
2023-03-11T02:22:33.238Z,80.59
2023-03-11T02:25:07.252Z,80.34
2023-03-11T02:27:38.391Z,79.91
2023-03-11T02:30:06.198Z,79.22
2023-03-11T02:32:33.152Z,79.49
2023-03-11T02:34:59.709Z,78.13
2023-03-11T02:37:26.412Z,79.48
2023-03-11T02:40:18.702Z,78.91
2023-03-11T02:42:45.514Z,80.11
2023-03-11T02:45:14.968Z,79.19
2023-03-11T02:47:41.850Z,79.52
2023-03-11T02:50:11.921Z,77.40
2023-03-11T02:52:38.762Z,77.64
2023-03-11T02:55:06.359Z,78.29
2023-03-11T02:57:33.269Z,78.04
2023-03-11T03:00:02.190Z,77.84
2023-03-11T03:02:28.656Z,77.43
2023-03-11T03:04:55.121Z,77.54
2023-03-11T03:07:21.830Z,77.12
2023-03-11T03:09:48.356Z,76.21
2023-03-11T03:12:14.945Z,75.74
2023-03-11T03:14:41.633Z,75.44
2023-03-11T03:17:08.328Z,75.24
2023-03-11T03:19:35.041Z,75.89
2023-03-11T03:22:01.632Z,75.60
2023-03-11T03:24:28.134Z,76.75
2023-03-11T03:26:54.640Z,75.92
2023-03-11T03:29:21.655Z,75.42
2023-03-11T03:31:48.611Z,75.25
2023-03-11T03:34:15.345Z,76.68
2023-03-11T03:36:41.995Z,74.37
2023-03-11T03:39:08.534Z,75.66
2023-03-11T03:41:35.323Z,76.29
2023-03-11T03:44:02.137Z,76.61
2023-03-11T03:46:29.124Z,77.08
2023-03-11T03:48:55.762Z,77.25
2023-03-11T03:51:22.365Z,76.17
2023-03-11T03:53:48.892Z,77.12
2023-03-11T03:56:16.996Z,75.27
2023-03-11T03:58:43.969Z,76.43
2023-03-11T04:01:11.168Z,77.18
2023-03-11T04:03:38.953Z,75.38
2023-03-11T04:06:07.153Z,76.29
2023-03-11T04:08:33.800Z,76.40
2023-03-11T04:11:00.277Z,75.97
2023-03-11T04:13:26.668Z,75.28
2023-03-11T04:15:53.275Z,76.52
2023-03-11T04:18:19.838Z,77.23
2023-03-11T04:20:46.486Z,78.15
2023-03-11T04:23:13.158Z,77.03
2023-03-11T04:25:39.775Z,76.90
2023-03-11T04:28:06.207Z,77.29
2023-03-11T04:30:32.825Z,78.01
2023-03-11T04:32:59.678Z,77.90
2023-03-11T04:35:26.372Z,78.82
2023-03-11T04:37:52.832Z,77.84
2023-03-11T04:40:19.792Z,78.07
2023-03-11T04:42:46.492Z,77.11
2023-03-11T04:45:13.294Z,78.48
2023-03-11T04:47:39.804Z,78.57
2023-03-11T04:50:06.496Z,78.54
2023-03-11T04:52:33.147Z,78.38
2023-03-11T04:54:59.607Z,77.81
2023-03-11T04:57:26.323Z,78.79
2023-03-11T04:59:52.804Z,79.52
2023-03-11T05:02:19.361Z,79.86
2023-03-11T05:04:45.900Z,78.96
2023-03-11T05:07:12.585Z,78.80
2023-03-11T05:09:39.264Z,78.64
2023-03-11T05:12:06.508Z,79.69
2023-03-11T05:14:33.480Z,79.15
2023-03-11T05:16:59.949Z,79.99
2023-03-11T05:19:34.472Z,78.66
2023-03-11T05:22:02.455Z,78.76
2023-03-11T05:24:29.872Z,79.91
2023-03-11T05:26:57.709Z,80.32
2023-03-11T05:29:25.077Z,80.70
2023-03-11T05:31:51.872Z,80.75
2023-03-11T05:34:18.393Z,79.85
2023-03-11T05:36:45.223Z,78.64
2023-03-11T05:39:12.049Z,80.20
2023-03-11T05:41:38.761Z,79.77
2023-03-11T05:44:05.307Z,80.14
2023-03-11T05:46:32.281Z,80.73
2023-03-11T05:49:00.140Z,80.67
2023-03-11T05:51:27.102Z,80.76
2023-03-11T05:53:54.064Z,81.10
2023-03-11T05:56:23.177Z,80.62
2023-03-11T05:58:50.363Z,80.45
2023-03-11T06:01:18.687Z,81.09
2023-03-11T06:03:45.427Z,80.97
2023-03-11T06:06:13.505Z,80.71
2023-03-11T06:08:40.060Z,81.58
2023-03-11T06:11:09.496Z,81.59
2023-03-11T06:13:37.427Z,81.17
2023-03-11T06:16:04.870Z,82.24
2023-03-11T06:18:31.798Z,82.70
2023-03-11T06:20:59.904Z,80.82
2023-03-11T06:23:27.664Z,81.20
2023-03-11T06:25:56.959Z,80.36
2023-03-11T06:28:23.686Z,80.62
2023-03-11T06:30:50.480Z,81.33
2023-03-11T06:33:17.265Z,83.13
2023-03-11T06:35:43.878Z,84.59
2023-03-11T06:38:10.357Z,83.70
2023-03-11T06:40:37.929Z,82.46
2023-03-11T06:43:04.623Z,83.75
2023-03-11T06:45:31.445Z,82.00
2023-03-11T06:47:58.009Z,81.89
2023-03-11T06:50:24.500Z,82.69
2023-03-11T06:52:51.052Z,80.74
2023-03-11T06:55:17.788Z,80.20
2023-03-11T06:57:45.763Z,78.65
2023-03-11T07:00:13.001Z,78.33
2023-03-11T07:02:39.901Z,76.92
2023-03-11T07:05:07.290Z,76.63
2023-03-11T07:07:34.110Z,78.31
2023-03-11T07:10:00.804Z,78.76
2023-03-11T07:12:27.640Z,77.33
2023-03-11T07:14:58.591Z,76.73
2023-03-11T07:17:26.145Z,74.55
2023-03-11T07:19:53.145Z,75.95
2023-03-11T07:22:20.054Z,76.23
2023-03-11T07:24:48.883Z,75.90
2023-03-11T07:27:15.600Z,75.38
2023-03-11T07:29:42.209Z,75.93
2023-03-11T07:32:09.575Z,75.67
2023-03-11T07:34:36.325Z,75.61
2023-03-11T07:37:03.837Z,73.55
2023-03-11T07:39:30.288Z,73.78
2023-03-11T07:41:56.836Z,74.71
2023-03-11T07:44:23.693Z,72.29
2023-03-11T07:46:50.310Z,73.17
2023-03-11T07:49:16.879Z,74.37
2023-03-11T07:51:43.902Z,72.98
2023-03-11T07:54:12.090Z,74.20
2023-03-11T07:56:39.308Z,73.18
2023-03-11T07:59:06.130Z,73.63
2023-03-11T08:01:36.740Z,73.92
2023-03-11T08:04:08.595Z,72.63
2023-03-11T08:06:37.040Z,71.59
2023-03-11T08:09:09.006Z,69.94
2023-03-11T08:11:36.527Z,70.48
2023-03-11T08:14:04.343Z,70.62
2023-03-11T08:16:31.685Z,70.27
2023-03-11T08:18:58.266Z,72.39
2023-03-11T08:21:28.920Z,72.16
2023-03-11T08:24:00.391Z,71.06
2023-03-11T08:26:28.629Z,69.06
2023-03-11T08:28:56.677Z,70.81
2023-03-11T08:31:26.303Z,69.64
2023-03-11T08:33:57.598Z,70.23
2023-03-11T08:36:24.490Z,67.02
2023-03-11T08:38:51.025Z,68.80
2023-03-11T08:41:17.983Z,69.65
2023-03-11T08:43:45.418Z,67.44
2023-03-11T08:46:28.162Z,66.60
2023-03-11T08:48:57.215Z,66.29
2023-03-11T08:51:26.164Z,66.88
2023-03-11T08:53:53.710Z,61.75
2023-03-11T08:56:20.691Z,60.73
2023-03-11T08:58:49.036Z,65.27
2023-03-11T09:01:15.711Z,64.21
2023-03-11T09:03:42.259Z,64.40
2023-03-11T09:06:13.525Z,63.01
2023-03-11T09:08:40.152Z,63.53
2023-03-11T09:11:07.049Z,65.93
2023-03-11T09:13:33.600Z,66.52
2023-03-11T09:16:00.533Z,63.45
2023-03-11T09:18:29.201Z,63.63
2023-03-11T09:20:58.622Z,61.95
2023-03-11T09:23:25.333Z,63.07
2023-03-11T09:25:52.037Z,59.94
2023-03-11T09:28:18.640Z,58.94
2023-03-11T09:30:45.054Z,58.54
2023-03-11T09:33:11.595Z,60.62
2023-03-11T09:35:39.357Z,60.30
2023-03-11T09:38:05.901Z,61.20
2023-03-11T09:41:18.540Z,54.55
2023-03-11T09:44:06.730Z,55.69
2023-03-11T09:46:57.673Z,56.29
2023-03-11T09:49:29.653Z,53.20
2023-03-11T09:52:19.067Z,53.87
2023-03-11T09:54:56.552Z,53.50
2023-03-11T09:57:28.155Z,52.79
2023-03-11T09:59:55.119Z,52.04
2023-03-11T10:02:26.744Z,51.06
2023-03-11T10:05:19.790Z,51.58
2023-03-11T10:07:53.540Z,50.87
2023-03-11T10:10:21.674Z,46.91
2023-03-11T10:12:51.288Z,41.62
2023-03-11T10:15:24.856Z,39.74
2023-03-11T10:18:10.014Z,45.82
2023-03-11T10:20:47.337Z,45.19
2023-03-11T10:23:31.133Z,41.53
2023-03-11T10:26:11.709Z,44.39
2023-03-11T10:29:07.357Z,47.14
2023-03-11T10:32:06.086Z,46.98
2023-03-11T10:34:39.413Z,45.45
2023-03-11T10:37:26.330Z,44.82
2023-03-11T10:40:05.760Z,45.83
2023-03-11T10:42:34.875Z,46.11
2023-03-11T10:45:01.438Z,42.60
2023-03-11T10:47:29.250Z,41.54
2023-03-11T10:49:55.730Z,39.46
2023-03-11T10:52:22.337Z,40.73
2023-03-11T10:55:00.518Z,37.16
2023-03-11T10:57:28.442Z,32.59
2023-03-11T11:00:01.574Z,31.00
2023-03-11T11:02:32.438Z,32.18
2023-03-11T11:05:05.663Z,34.15
2023-03-11T11:07:33.886Z,35.05
2023-03-11T11:10:12.175Z,39.63
2023-03-11T11:12:57.586Z,43.29
2023-03-11T11:15:29.349Z,44.89
2023-03-11T11:18:00.245Z,42.44
2023-03-11T11:20:27.928Z,45.04
2023-03-11T11:23:03.413Z,44.57
2023-03-11T11:25:34.147Z,47.64
2023-03-11T11:28:14.570Z,46.57
2023-03-11T11:30:55.066Z,46.58
2023-03-11T11:33:26.631Z,44.95
2023-03-11T11:35:56.964Z,45.25
2023-03-11T11:38:26.699Z,46.75
2023-03-11T11:40:55.963Z,43.65
2023-03-11T11:43:39.891Z,45.82
2023-03-11T11:46:18.605Z,41.87
2023-03-11T11:49:04.470Z,42.87
2023-03-11T11:51:44.422Z,40.40
2023-03-11T11:54:21.326Z,40.67
2023-03-11T11:56:48.197Z,43.59
2023-03-11T11:59:20.299Z,46.02
2023-03-11T12:02:20.778Z,46.03
2023-03-11T12:04:53.475Z,44.36
2023-03-11T12:07:31.022Z,45.91
2023-03-11T12:10:22.666Z,45.14
2023-03-11T12:13:34.846Z,46.86
2023-03-11T12:16:48.836Z,46.44
2023-03-11T12:19:33.969Z,41.62
2023-03-11T12:22:10.504Z,41.78
2023-03-11T12:24:55.250Z,40.15
2023-03-11T12:27:27.526Z,43.03
2023-03-11T12:29:57.713Z,43.23
2023-03-11T12:32:37.508Z,44.24
2023-03-11T12:35:39.392Z,47.15
2023-03-11T12:38:21.052Z,48.37
2023-03-11T12:41:08.703Z,49.07
2023-03-11T12:43:35.855Z,48.31
2023-03-11T12:46:07.333Z,51.29
2023-03-11T12:48:44.190Z,48.93
2023-03-11T12:51:39.108Z,51.11
2023-03-11T12:54:32.093Z,50.59
2023-03-11T12:57:19.060Z,52.10
2023-03-11T13:00:02.732Z,48.70
2023-03-11T13:02:38.793Z,48.69
2023-03-11T13:05:12.629Z,51.96
2023-03-11T13:07:48.732Z,51.30
2023-03-11T13:10:33.478Z,50.96
2023-03-11T13:13:00.895Z,49.21
2023-03-11T13:15:33.692Z,47.13
2023-03-11T13:18:12.439Z,48.08
2023-03-11T13:20:39.046Z,46.97
2023-03-11T13:23:13.129Z,49.56
2023-03-11T13:25:41.527Z,51.23
2023-03-11T13:28:29.772Z,51.19
2023-03-11T13:31:09.137Z,49.56
2023-03-11T13:33:47.957Z,45.21
2023-03-11T13:36:23.349Z,47.33
2023-03-11T13:39:34.455Z,49.00
2023-03-11T13:42:01.377Z,48.11
2023-03-11T13:44:38.806Z,44.65
2023-03-11T13:47:16.522Z,43.83
2023-03-11T13:49:52.705Z,43.83
2023-03-11T13:52:27.017Z,44.32
2023-03-11T13:55:05.170Z,41.83
2023-03-11T13:57:34.796Z,44.33
2023-03-11T14:00:23.894Z,43.69
2023-03-11T14:02:55.193Z,42.47
2023-03-11T14:05:29.889Z,45.43
2023-03-11T14:08:21.830Z,43.22
2023-03-11T14:11:15.429Z,45.57
2023-03-11T14:13:44.880Z,42.67
2023-03-11T14:16:16.077Z,43.84
2023-03-11T14:18:44.599Z,48.41
2023-03-11T14:21:19.868Z,48.00
2023-03-11T14:23:49.050Z,48.53
2023-03-11T14:26:19.338Z,45.25
2023-03-11T14:28:52.345Z,43.82
2023-03-11T14:31:21.797Z,46.61
2023-03-11T14:33:56.058Z,42.72
2023-03-11T14:36:22.588Z,42.65
2023-03-11T14:38:49.423Z,45.97
2023-03-11T14:41:16.193Z,46.86
2023-03-11T14:43:48.486Z,42.81
2023-03-11T14:46:24.316Z,43.23
2023-03-11T14:48:51.864Z,44.78
2023-03-11T14:51:24.015Z,43.39
2023-03-11T14:54:22.095Z,44.68
2023-03-11T14:56:55.978Z,46.57
2023-03-11T14:59:28.525Z,44.39
2023-03-11T15:01:59.445Z,44.53
2023-03-11T15:04:38.400Z,42.29
2023-03-11T15:07:05.920Z,44.09
2023-03-11T15:09:33.006Z,44.78
2023-03-11T15:12:01.030Z,45.69
2023-03-11T15:14:33.246Z,44.27
2023-03-11T15:17:33.853Z,44.94
2023-03-11T15:20:07.404Z,45.77
2023-03-11T15:22:40.818Z,42.89
2023-03-11T15:25:19.202Z,43.25
2023-03-11T15:27:46.800Z,43.41
2023-03-11T15:30:22.668Z,42.68
2023-03-11T15:32:49.839Z,42.23
2023-03-11T15:35:18.612Z,42.28
2023-03-11T15:37:47.554Z,42.36
2023-03-11T15:40:43.925Z,43.47
2023-03-11T15:43:26.119Z,42.62
2023-03-11T15:45:54.503Z,42.95
2023-03-11T15:48:22.334Z,41.46
2023-03-11T15:50:54.324Z,43.87
2023-03-11T15:53:22.906Z,44.70
2023-03-11T15:55:49.471Z,43.71
2023-03-11T15:58:18.083Z,46.36
2023-03-11T16:00:57.903Z,47.17
2023-03-11T16:03:24.794Z,45.78
2023-03-11T16:05:53.438Z,45.99
2023-03-11T16:08:20.131Z,46.41
2023-03-11T16:10:46.953Z,47.21
2023-03-11T16:13:14.970Z,44.21
2023-03-11T16:15:42.671Z,46.02
2023-03-11T16:18:10.428Z,45.55
2023-03-11T16:20:55.863Z,46.24
2023-03-11T16:23:25.619Z,45.47
2023-03-11T16:26:02.758Z,43.98
2023-03-11T16:28:29.325Z,45.42
2023-03-11T16:30:56.134Z,45.12
2023-03-11T16:33:23.113Z,45.96
2023-03-11T16:35:49.833Z,45.17
2023-03-11T16:38:19.565Z,45.10
2023-03-11T16:40:55.636Z,45.33
2023-03-11T16:43:23.071Z,47.03
2023-03-11T16:45:50.044Z,45.95
2023-03-11T16:48:16.870Z,46.73
2023-03-11T16:50:43.583Z,47.36
2023-03-11T16:53:10.521Z,49.11
2023-03-11T16:55:36.962Z,47.80
2023-03-11T16:58:03.537Z,49.48
2023-03-11T17:00:30.004Z,49.19
2023-03-11T17:02:56.847Z,48.14
2023-03-11T17:05:23.684Z,49.08
2023-03-11T17:07:54.509Z,51.90
2023-03-11T17:10:23.805Z,51.74
2023-03-11T17:12:50.583Z,51.92
2023-03-11T17:15:17.538Z,54.43
2023-03-11T17:17:44.160Z,55.36
2023-03-11T17:20:11.585Z,53.08
2023-03-11T17:22:40.004Z,59.90
2023-03-11T17:25:07.121Z,58.97
2023-03-11T17:27:34.414Z,59.83
2023-03-11T17:30:02.504Z,59.93
2023-03-11T17:32:30.581Z,58.69
2023-03-11T17:34:57.739Z,59.15
2023-03-11T17:37:24.709Z,61.73
2023-03-11T17:39:51.217Z,62.04
2023-03-11T17:42:17.947Z,66.16
2023-03-11T17:44:51.448Z,62.12
2023-03-11T17:47:19.644Z,62.73
2023-03-11T17:49:47.286Z,61.98
2023-03-11T17:52:14.319Z,62.88
2023-03-11T17:54:40.752Z,62.45
2023-03-11T17:57:07.274Z,60.56
2023-03-11T17:59:33.942Z,62.92
2023-03-11T18:02:00.776Z,60.14
2023-03-11T18:04:27.322Z,62.92
2023-03-11T18:06:54.694Z,66.43
2023-03-11T18:09:22.458Z,65.86
2023-03-11T18:11:49.430Z,67.79
2023-03-11T18:14:15.977Z,64.37
2023-03-11T18:16:42.628Z,64.82
2023-03-11T18:19:09.301Z,64.63
2023-03-11T18:21:35.952Z,65.36
2023-03-11T18:24:02.478Z,66.14
2023-03-11T18:26:30.013Z,69.72
2023-03-11T18:28:57.818Z,73.49
2023-03-11T18:31:25.497Z,72.38
2023-03-11T18:33:55.020Z,70.78
2023-03-11T18:36:27.423Z,71.25
2023-03-11T18:38:56.749Z,71.61
2023-03-11T18:41:24.485Z,72.58
2023-03-11T18:43:57.379Z,72.61
2023-03-11T18:46:25.390Z,73.82
2023-03-11T18:48:57.520Z,71.88
2023-03-11T18:51:26.350Z,70.70
2023-03-11T18:53:53.383Z,71.39
2023-03-11T18:56:20.164Z,75.89
2023-03-11T18:58:50.408Z,77.54
2023-03-11T19:01:21.628Z,77.61
2023-03-11T19:03:53.910Z,75.99
2023-03-11T19:06:21.497Z,75.87
2023-03-11T19:08:48.767Z,74.48
2023-03-11T19:11:18.111Z,74.01
2023-03-11T19:13:47.480Z,73.64
2023-03-11T19:16:19.600Z,74.01
2023-03-11T19:18:46.825Z,73.88
2023-03-11T19:21:15.236Z,74.81
2023-03-11T19:23:42.686Z,75.84
2023-03-11T19:26:09.548Z,75.46
2023-03-11T19:28:37.035Z,75.58
2023-03-11T19:31:05.234Z,74.35
2023-03-11T19:33:32.526Z,78.12
2023-03-11T19:36:04.272Z,77.01
2023-03-11T19:38:31.080Z,77.64
2023-03-11T19:41:02.273Z,77.42
2023-03-11T19:43:29.659Z,78.62
2023-03-11T19:45:56.505Z,80.16
2023-03-11T19:48:25.659Z,80.87
2023-03-11T19:50:52.861Z,80.17
2023-03-11T19:53:21.085Z,79.00
2023-03-11T19:55:53.022Z,77.16
2023-03-11T19:58:20.346Z,80.17
2023-03-11T20:00:47.345Z,80.67
2023-03-11T20:03:14.748Z,80.61
2023-03-11T20:05:43.961Z,79.81
2023-03-11T20:08:11.849Z,78.25
2023-03-11T20:10:40.880Z,80.10
2023-03-11T20:13:07.757Z,80.83
2023-03-11T20:15:34.887Z,80.25
2023-03-11T20:18:03.391Z,80.96
2023-03-11T20:20:30.517Z,80.89
2023-03-11T20:22:58.401Z,79.95
2023-03-11T20:25:25.855Z,82.08
2023-03-11T20:27:53.297Z,82.21
2023-03-11T20:30:20.381Z,83.23
2023-03-11T20:32:47.250Z,83.16
2023-03-11T20:35:15.238Z,82.63
2023-03-11T20:37:43.636Z,82.76
2023-03-11T20:40:15.644Z,83.22
2023-03-11T20:42:46.608Z,82.89
2023-03-11T20:45:21.370Z,82.24
2023-03-11T20:47:48.953Z,82.99
2023-03-11T20:50:15.984Z,84.22
2023-03-11T20:52:42.660Z,82.92
2023-03-11T20:55:10.220Z,81.76
2023-03-11T20:57:38.240Z,82.20
2023-03-11T21:00:10.912Z,79.25
2023-03-11T21:02:42.261Z,80.54
2023-03-11T21:05:10.198Z,81.13
2023-03-11T21:07:37.070Z,82.96
2023-03-11T21:10:11.586Z,83.10
2023-03-11T21:12:38.893Z,84.49
2023-03-11T21:15:06.733Z,84.28
2023-03-11T21:17:34.646Z,80.79
2023-03-11T21:20:01.391Z,83.83
2023-03-11T21:22:27.928Z,82.17
2023-03-11T21:24:55.218Z,81.98
2023-03-11T21:27:26.145Z,82.17
2023-03-11T21:29:54.073Z,84.40
2023-03-11T21:32:22.046Z,84.69
2023-03-11T21:34:49.127Z,83.15
2023-03-11T21:37:16.528Z,84.36
2023-03-11T21:39:42.983Z,83.45
2023-03-11T21:42:09.485Z,84.69
2023-03-11T21:44:36.086Z,83.78
2023-03-11T21:47:02.602Z,84.91
2023-03-11T21:49:29.312Z,84.33
2023-03-11T21:51:55.688Z,84.13
2023-03-11T21:54:22.354Z,82.56
2023-03-11T21:56:48.997Z,83.25
2023-03-11T21:59:15.779Z,83.76
2023-03-11T22:01:42.645Z,82.48
2023-03-11T22:04:09.723Z,81.90
2023-03-11T22:06:36.500Z,81.22
2023-03-11T22:09:04.421Z,82.34
2023-03-11T22:11:31.590Z,81.59
2023-03-11T22:14:00.520Z,81.60
2023-03-11T22:16:27.256Z,81.75
2023-03-11T22:18:53.953Z,82.31
2023-03-11T22:21:20.912Z,83.28
2023-03-11T22:23:48.040Z,81.34
2023-03-11T22:26:14.782Z,81.80
2023-03-11T22:28:42.139Z,82.79
2023-03-11T22:31:10.773Z,81.64
2023-03-11T22:33:37.560Z,82.48
2023-03-11T22:36:04.782Z,83.71
2023-03-11T22:38:32.491Z,82.67
2023-03-11T22:41:00.272Z,83.08
2023-03-11T22:43:27.510Z,82.22
2023-03-11T22:45:54.101Z,81.36
2023-03-11T22:48:21.009Z,80.88
2023-03-11T22:50:47.742Z,81.54
2023-03-11T22:53:15.495Z,82.35
2023-03-11T22:55:43.909Z,81.97
2023-03-11T22:58:11.842Z,81.77
2023-03-11T23:00:38.730Z,81.95
2023-03-11T23:03:06.489Z,82.14
2023-03-11T23:05:40.631Z,81.89
2023-03-11T23:08:10.009Z,81.58
2023-03-11T23:10:41.150Z,82.90
2023-03-11T23:13:07.943Z,82.40
2023-03-11T23:15:34.309Z,83.57
2023-03-11T23:18:01.256Z,84.02
2023-03-11T23:20:27.940Z,82.31
2023-03-11T23:22:54.516Z,83.68
2023-03-11T23:25:21.252Z,82.88
2023-03-11T23:27:47.896Z,81.89
2023-03-11T23:30:16.517Z,81.95
2023-03-11T23:32:44.051Z,82.45
2023-03-11T23:35:12.356Z,83.71
2023-03-11T23:37:40.065Z,83.07
2023-03-11T23:40:07.909Z,83.35
2023-03-11T23:42:35.710Z,83.75
2023-03-11T23:45:02.348Z,82.68
2023-03-11T23:47:29.031Z,82.96
2023-03-11T23:49:55.730Z,83.17
2023-03-11T23:52:22.973Z,83.56
2023-03-11T23:54:49.564Z,81.83
2023-03-11T23:57:16.527Z,82.82
2023-03-11T23:59:43.204Z,83.48
